• Join FlightAware (Why Join?)
  • Login
  • US Flag 
11:26PM EDT


 

Airport Tracker/Info


-or-


 

Live Flight TrackerFlight Track Log ✈ LBQ792 ✈ 30-Apr-2013 ✈ KRDG - KELM

Flight Track Log - Related Links

Times and Time Zones

All times are in EDT time to prevent confusion due to time zone crossing. See the LBQ792 flight status page for this flight to view local times or setup timezone preferences in your user account.

Time Position Orientation Groundspeed Altitude Reporting Facility
EDT Latitude Longitude Course Direction KTS MPH feet Rate Location/Type
08:33PM 40.3903 -76.1231 346° North 199 229 5,700  Level New York Center
08:34PM 40.4064 -76.1814 290° West 194 223 7,000 1,380 Climbing New York Center
08:35PM 40.4261 -76.2483 291° West 194 223 8,600 1,440 Climbing New York Center
08:36PM 40.5167 -76.4374 270° West  Level FlightAware Approximate
08:36PM 40.4556 -76.2864 315° West 181 208 9,900  Level New York Center
08:37PM 40.5363 -76.5284 288° West  Level FlightAware Approximate
08:37PM 40.5089 -76.3097 342° North 172 198 11,600  Level New York Center
08:38PM 40.5775 -76.5925 346° North  Level FlightAware Approximate
08:38PM 40.5617 -76.3358 339° North 186 214 12,000  Level New York Center
08:39PM 40.6231 -76.3600 343° North 213 245 12,000  Level New York Center
08:40PM 40.6803 -76.3836 343° North 231 266 12,000  Level New York Center
08:41PM 40.7519 -76.4142 342° North 242 278 12,000  Level New York Center
08:42PM 40.8172 -76.4417 342° North 242 278 12,000  Level New York Center
08:43PM 40.8806 -76.4689 342° North 242 278 12,000  Level New York Center
08:44PM 40.9375 -76.4956 341° North 237 273 12,000  Level New York Center
08:45PM 41.0069 -76.5233 343° North 237 273 12,000  Level New York Center
08:46PM 41.0703 -76.5508 342° North 242 278 12,000  Level New York Center
08:47PM 41.1336 -76.5756 344° North 242 278 12,000  Level New York Center
08:48PM 41.1889 -76.5967 344° North 242 278 12,000  Level New York Center
08:49PM 41.2522 -76.6242 342° North 242 278 12,000  Level New York Center
08:50PM 41.3214 -76.6553 341° North 242 278 12,000  Level New York Center
08:51PM 41.3844 -76.6856 340° North 242 278 12,000  Level New York Center
08:52PM 41.4414 -76.7128 340° North 247 284 12,000  Level New York Center
08:53PM 41.5047 -76.7406 342° North 241 277 12,000  Level New York Center
08:54PM 41.5697 -76.7711 341° North 241 277 12,000  Level New York Center
08:55PM 41.6308 -76.8017 340° North 241 277 12,000 -420 Level New York Center
08:56PM 41.6981 -76.8300 343° North 241 277 11,200 -960 Descending New York Center
08:57PM 41.7658 -76.8472 349° North 241 277 10,100 -1,380 Descending New York Center
08:58PM 41.8375 -76.8317 North 241 277 8,600 -1,440 Descending New York Center
08:59PM 41.9131 -76.8189 North 254 292 7,300 -1,320 Descending New York Center